createdAt,value
2023-05-25T00:01:59.678Z,99.90
2023-05-25T00:04:31.392Z,99.90
2023-05-25T00:06:59.255Z,99.90
2023-05-25T00:09:27.291Z,99.90
2023-05-25T00:11:55.760Z,99.90
2023-05-25T00:14:27.920Z,99.90
2023-05-25T00:16:57.626Z,99.90
2023-05-25T00:19:27.109Z,99.90
2023-05-25T00:21:56.210Z,99.90
2023-05-25T00:24:24.614Z,99.90
2023-05-25T00:26:52.948Z,99.90
2023-05-25T00:29:21.147Z,99.90
2023-05-25T00:31:50.867Z,99.90
2023-05-25T00:34:20.379Z,99.90
2023-05-25T00:36:50.257Z,99.90
2023-05-25T00:39:20.448Z,99.90
2023-05-25T00:41:49.799Z,99.90
2023-05-25T00:44:21.702Z,99.90
2023-05-25T00:46:51.302Z,99.90
2023-05-25T00:49:23.342Z,99.90
2023-05-25T00:51:56.683Z,99.90
2023-05-25T00:54:25.402Z,99.90
2023-05-25T00:56:58.559Z,99.90
2023-05-25T00:59:35.685Z,99.90
2023-05-25T01:02:05.764Z,99.90
2023-05-25T01:04:37.637Z,99.90
2023-05-25T01:07:07.955Z,99.90
2023-05-25T01:09:47.581Z,99.90
2023-05-25T01:12:21.363Z,99.90
2023-05-25T01:14:50.738Z,99.90
2023-05-25T01:17:20.567Z,99.90
2023-05-25T01:20:08.211Z,99.90
2023-05-25T01:22:44.168Z,99.90
2023-05-25T01:25:23.429Z,99.90
2023-05-25T01:28:00.338Z,99.90
2023-05-25T01:30:31.744Z,99.90
2023-05-25T01:33:01.210Z,99.90
2023-05-25T01:35:31.633Z,99.90
2023-05-25T01:38:01.525Z,99.90
2023-05-25T01:40:31.248Z,99.90
2023-05-25T01:42:59.680Z,99.90
2023-05-25T01:45:28.590Z,99.90
2023-05-25T01:48:08.728Z,99.90
2023-05-25T01:50:44.544Z,99.90
2023-05-25T01:53:21.222Z,99.90
2023-05-25T01:55:54.368Z,99.90
2023-05-25T01:58:24.941Z,99.90
2023-05-25T02:00:54.165Z,99.90
2023-05-25T02:03:24.306Z,99.90
2023-05-25T02:05:53.133Z,99.90
2023-05-25T02:08:22.804Z,99.90
2023-05-25T02:10:51.493Z,99.90
2023-05-25T02:13:19.628Z,99.90
2023-05-25T02:15:47.894Z,99.90
2023-05-25T02:18:18.745Z,99.90
2023-05-25T02:20:48.687Z,99.90
2023-05-25T02:23:18.651Z,99.90
2023-05-25T02:25:52.619Z,99.90
2023-05-25T02:28:21.501Z,99.90
2023-05-25T02:30:49.475Z,99.90
2023-05-25T02:33:18.721Z,99.90
2023-05-25T02:35:47.396Z,99.90
2023-05-25T02:38:15.277Z,99.90
2023-05-25T02:40:52.710Z,99.90
2023-05-25T02:43:20.517Z,99.90
2023-05-25T02:45:51.273Z,99.90
2023-05-25T02:48:19.567Z,99.90
2023-05-25T02:50:47.851Z,99.90
2023-05-25T02:53:16.346Z,99.90
2023-05-25T02:55:44.879Z,99.90
2023-05-25T02:58:14.545Z,99.90
2023-05-25T03:00:42.884Z,99.90
2023-05-25T03:03:11.268Z,99.90
2023-05-25T03:05:42.660Z,99.90
2023-05-25T03:08:11.616Z,99.90
2023-05-25T03:10:42.717Z,99.90
2023-05-25T03:13:10.819Z,99.90
2023-05-25T03:15:41.268Z,99.90
2023-05-25T03:18:09.180Z,99.90
2023-05-25T03:20:37.915Z,99.90
2023-05-25T03:23:06.369Z,99.90
2023-05-25T03:25:34.403Z,99.90
2023-05-25T03:28:02.663Z,99.90
2023-05-25T03:30:31.440Z,99.90
2023-05-25T03:33:01.297Z,99.90
2023-05-25T03:35:29.886Z,99.90
2023-05-25T03:37:57.817Z,99.90
2023-05-25T03:40:25.967Z,99.90
2023-05-25T03:42:54.004Z,99.90
2023-05-25T03:45:21.879Z,99.90
2023-05-25T03:47:50.059Z,99.90
2023-05-25T03:50:19.909Z,99.90
2023-05-25T03:52:48.124Z,99.90
2023-05-25T03:55:16.506Z,99.90
2023-05-25T03:57:45.646Z,99.90
2023-05-25T04:00:15.729Z,99.90
2023-05-25T04:02:44.417Z,99.90
2023-05-25T04:05:12.335Z,99.90
2023-05-25T04:07:41.950Z,99.90
2023-05-25T04:10:10.679Z,99.90
2023-05-25T04:12:39.712Z,99.90
2023-05-25T04:15:12.518Z,99.90
2023-05-25T04:17:41.259Z,99.90
2023-05-25T04:20:13.304Z,99.90
2023-05-25T04:22:52.778Z,99.90
2023-05-25T04:25:21.380Z,99.90
2023-05-25T04:27:50.037Z,99.90
2023-05-25T04:30:20.776Z,99.90
2023-05-25T04:32:49.465Z,99.90
2023-05-25T04:35:20.861Z,99.90
2023-05-25T04:37:50.318Z,99.90
2023-05-25T04:40:18.361Z,99.90
2023-05-25T04:42:48.005Z,99.90
2023-05-25T04:45:22.217Z,99.90
2023-05-25T04:47:51.139Z,99.90
2023-05-25T04:50:19.348Z,99.90
2023-05-25T04:52:47.065Z,99.90
2023-05-25T04:55:21.183Z,99.90
2023-05-25T04:57:49.735Z,99.90
2023-05-25T05:00:20.070Z,99.90
2023-05-25T05:02:51.510Z,99.90
2023-05-25T05:05:19.361Z,99.90
2023-05-25T05:07:48.295Z,99.90
2023-05-25T05:10:17.815Z,99.90
2023-05-25T05:12:47.041Z,99.90
2023-05-25T05:15:14.851Z,99.90
2023-05-25T05:17:43.294Z,99.90
2023-05-25T05:20:11.734Z,99.90
2023-05-25T05:22:42.125Z,99.90
2023-05-25T05:25:10.918Z,99.90
2023-05-25T05:27:40.527Z,99.90
2023-05-25T05:30:10.138Z,99.90
2023-05-25T05:32:39.841Z,99.90
2023-05-25T05:35:08.916Z,99.90
2023-05-25T05:37:37.190Z,99.90
2023-05-25T05:40:09.182Z,99.90
2023-05-25T05:42:40.092Z,99.90
2023-05-25T05:45:09.350Z,99.90
2023-05-25T05:47:37.681Z,99.90
2023-05-25T05:50:07.002Z,99.90
2023-05-25T05:52:35.264Z,99.90
2023-05-25T05:55:03.609Z,99.90
2023-05-25T05:57:31.594Z,99.90
2023-05-25T06:00:01.925Z,99.90
2023-05-25T06:02:30.297Z,99.90
2023-05-25T06:05:01.797Z,99.90
2023-05-25T06:07:30.924Z,99.90
2023-05-25T06:09:59.191Z,99.90
2023-05-25T06:12:29.479Z,99.90
2023-05-25T06:14:57.522Z,99.90
2023-05-25T06:17:26.704Z,99.90
2023-05-25T06:19:55.160Z,99.90
2023-05-25T06:22:28.605Z,99.90
2023-05-25T06:24:59.700Z,99.90
2023-05-25T06:27:28.869Z,99.90
2023-05-25T06:29:56.880Z,99.90
2023-05-25T06:32:26.069Z,99.90
2023-05-25T06:34:56.090Z,99.90
2023-05-25T06:37:25.646Z,99.90
2023-05-25T06:39:54.867Z,99.90
2023-05-25T06:42:24.203Z,99.90
2023-05-25T06:44:56.455Z,99.90
2023-05-25T06:47:26.277Z,99.90
2023-05-25T06:49:55.079Z,99.90
2023-05-25T06:52:23.319Z,99.90
2023-05-25T06:54:54.105Z,99.90
2023-05-25T06:57:22.514Z,99.90
2023-05-25T06:59:51.275Z,99.90
2023-05-25T07:02:21.735Z,99.90
2023-05-25T07:04:51.764Z,99.90
2023-05-25T07:07:20.760Z,99.90
2023-05-25T07:09:50.173Z,99.90
2023-05-25T07:12:18.554Z,99.90
2023-05-25T07:14:48.556Z,99.90
2023-05-25T07:17:17.229Z,99.90
2023-05-25T07:19:46.147Z,99.90
2023-05-25T07:22:19.448Z,99.90
2023-05-25T07:24:49.029Z,99.90
2023-05-25T07:27:18.154Z,99.90
2023-05-25T07:29:46.340Z,99.90
2023-05-25T07:32:14.348Z,99.90
2023-05-25T07:34:44.796Z,99.90
2023-05-25T07:37:13.645Z,99.90
2023-05-25T07:39:45.141Z,99.90
2023-05-25T07:42:13.242Z,99.90
2023-05-25T07:44:41.213Z,99.90
2023-05-25T07:47:09.929Z,99.90
2023-05-25T07:49:38.116Z,99.90
2023-05-25T07:52:06.980Z,99.90
2023-05-25T07:54:35.001Z,99.90
2023-05-25T07:57:04.663Z,99.90
2023-05-25T07:59:32.725Z,99.90
2023-05-25T08:02:02.325Z,99.90
2023-05-25T08:04:30.930Z,99.90
2023-05-25T08:06:59.639Z,99.90
2023-05-25T08:09:30.057Z,99.90
2023-05-25T08:12:21.294Z,99.90
2023-05-25T08:14:47.576Z,99.90
2023-05-25T08:17:16.418Z,99.90
2023-05-25T08:19:44.322Z,96.00
2023-05-25T08:22:12.098Z,97.80
2023-05-25T08:24:39.884Z,97.00
2023-05-25T08:27:09.936Z,98.80
2023-05-25T08:29:38.449Z,99.90
2023-05-25T08:32:08.411Z,97.80
2023-05-25T08:34:36.638Z,96.40
2023-05-25T08:37:05.945Z,94.80
2023-05-25T08:39:34.996Z,99.90
2023-05-25T08:42:05.674Z,94.00
2023-05-25T08:44:33.991Z,88.10
2023-05-25T08:47:11.526Z,90.50
2023-05-25T08:49:41.793Z,96.70
2023-05-25T08:52:14.531Z,98.10
2023-05-25T08:54:48.826Z,94.00
2023-05-25T08:57:22.728Z,75.40
2023-05-25T08:59:58.150Z,60.00
2023-05-25T09:02:57.634Z,58.60
2023-05-25T09:05:28.148Z,64.40
2023-05-25T09:07:58.523Z,74.90
2023-05-25T09:10:29.073Z,91.90
2023-05-25T09:12:57.722Z,91.00
2023-05-25T09:15:25.730Z,84.20
2023-05-25T09:17:55.361Z,72.50
2023-05-25T09:20:25.819Z,70.90
2023-05-25T09:22:55.739Z,58.90
2023-05-25T09:25:26.315Z,52.30
2023-05-25T09:27:58.334Z,53.50
2023-05-25T09:30:27.788Z,52.30
2023-05-25T09:32:57.215Z,48.70
2023-05-25T09:35:26.461Z,47.20
2023-05-25T09:37:56.285Z,48.10
2023-05-25T09:40:24.761Z,52.50
2023-05-25T09:42:55.142Z,51.60
2023-05-25T09:45:24.697Z,50.80
2023-05-25T09:48:00.270Z,49.60
2023-05-25T09:50:29.476Z,50.10
2023-05-25T09:53:00.386Z,49.90
2023-05-25T09:55:40.034Z,50.50
2023-05-25T09:58:14.054Z,47.60
2023-05-25T10:00:42.420Z,37.40
2023-05-25T10:03:15.578Z,34.20
2023-05-25T10:05:44.269Z,31.80
2023-05-25T10:08:15.801Z,30.00
2023-05-25T10:10:44.875Z,25.90
2023-05-25T10:13:15.842Z,26.90
2023-05-25T10:15:46.797Z,33.20
2023-05-25T10:18:18.030Z,36.90
2023-05-25T10:20:50.527Z,36.60
2023-05-25T10:23:22.954Z,38.20
2023-05-25T10:25:57.393Z,33.40
2023-05-25T10:28:29.546Z,34.40
2023-05-25T10:30:59.824Z,29.50
2023-05-25T10:36:09.002Z,24.40
2023-05-25T10:38:42.152Z,23.10
2023-05-25T10:41:11.695Z,23.90
2023-05-25T10:43:40.440Z,23.30
2023-05-25T10:46:10.925Z,23.40
2023-05-25T10:48:46.372Z,22.80
2023-05-25T10:51:20.371Z,20.60
2023-05-25T10:53:53.364Z,16.90
2023-05-25T10:56:21.537Z,18.70
2023-05-25T10:58:50.328Z,17.90
2023-05-25T11:01:18.472Z,19.40
2023-05-25T11:03:55.317Z,18.40
2023-05-25T11:06:27.960Z,15.70
2023-05-25T11:09:01.470Z,15.80
2023-05-25T11:12:03.970Z,17.00
2023-05-25T11:14:33.232Z,17.80
2023-05-25T11:17:10.574Z,17.00
2023-05-25T11:19:46.204Z,15.60
2023-05-25T11:22:20.408Z,16.00
2023-05-25T11:24:49.826Z,14.70
2023-05-25T11:27:23.802Z,11.60
2023-05-25T11:29:54.444Z,10.30
2023-05-25T11:32:23.205Z,11.20
2023-05-25T11:34:55.282Z,8.70
2023-05-25T11:37:25.460Z,7.40
2023-05-25T11:39:57.463Z,8.70
2023-05-25T11:42:25.934Z,8.40
2023-05-25T11:44:53.949Z,8.50
2023-05-25T11:47:25.477Z,10.80
2023-05-25T11:50:00.169Z,5.40
2023-05-25T11:52:29.737Z,2.80
2023-05-25T11:54:58.096Z,5.70
2023-05-25T11:57:27.302Z,8.30
2023-05-25T11:59:57.269Z,14.60
2023-05-25T12:02:26.306Z,13.90
2023-05-25T12:04:57.004Z,12.30
2023-05-25T12:07:26.092Z,12.60
2023-05-25T12:09:53.977Z,10.70
2023-05-25T12:12:22.001Z,8.40
2023-05-25T12:14:50.501Z,8.00
2023-05-25T12:17:22.961Z,8.50
2023-05-25T12:19:51.395Z,1.80
2023-05-25T12:22:20.956Z,1.00
2023-05-25T12:24:51.159Z,1.00
2023-05-25T12:27:20.227Z,2.90
2023-05-25T12:29:49.970Z,4.30
2023-05-25T12:32:18.896Z,2.40
2023-05-25T12:34:49.382Z,1.50
2023-05-25T12:37:24.181Z,3.00
2023-05-25T12:39:52.245Z,1.00
2023-05-25T12:42:20.307Z,1.00
2023-05-25T12:44:48.358Z,1.00
2023-05-25T12:47:20.143Z,1.00
2023-05-25T12:49:51.844Z,1.00
2023-05-25T12:52:38.076Z,1.00
2023-05-25T12:55:29.101Z,1.00
2023-05-25T12:57:58.920Z,1.00
2023-05-25T13:00:29.193Z,1.00
2023-05-25T13:02:57.146Z,1.00
2023-05-25T13:05:27.221Z,1.00
2023-05-25T13:07:59.666Z,1.00
2023-05-25T13:10:29.017Z,1.00
2023-05-25T13:12:58.712Z,1.00
2023-05-25T13:15:30.110Z,1.00
2023-05-25T13:17:59.657Z,1.00
2023-05-25T13:20:29.613Z,1.00
2023-05-25T13:22:59.535Z,1.00
2023-05-25T13:25:28.221Z,1.00
2023-05-25T13:27:59.857Z,1.00
2023-05-25T13:30:29.172Z,1.00
2023-05-25T13:32:57.223Z,1.00
2023-05-25T13:35:37.942Z,1.00
2023-05-25T13:38:17.493Z,1.00
2023-05-25T13:40:46.927Z,1.00
2023-05-25T13:43:15.151Z,1.00
2023-05-25T13:45:43.582Z,1.00
2023-05-25T13:48:14.020Z,1.00
2023-05-25T13:50:42.377Z,1.00
2023-05-25T13:53:11.832Z,1.00
2023-05-25T13:55:39.936Z,1.00
2023-05-25T13:58:08.076Z,1.00
2023-05-25T14:00:37.306Z,1.00
2023-05-25T14:03:05.289Z,1.00
2023-05-25T14:05:33.149Z,1.00
2023-05-25T14:08:04.770Z,1.00
2023-05-25T14:10:34.377Z,1.00
2023-05-25T14:13:03.126Z,1.00
2023-05-25T14:15:30.861Z,1.00
2023-05-25T14:18:00.876Z,1.00
2023-05-25T14:20:33.648Z,1.00
2023-05-25T14:23:01.936Z,1.00
2023-05-25T14:25:30.008Z,1.00
2023-05-25T14:27:59.349Z,1.00
2023-05-25T14:30:27.388Z,1.00
2023-05-25T14:32:55.587Z,1.00
2023-05-25T14:35:24.327Z,1.00
2023-05-25T14:37:52.459Z,1.00
2023-05-25T14:40:22.047Z,1.00
2023-05-25T14:42:51.058Z,1.00
2023-05-25T14:45:20.611Z,1.00
2023-05-25T14:48:00.719Z,1.00
2023-05-25T14:50:35.983Z,1.00
2023-05-25T14:53:03.876Z,1.00
2023-05-25T14:55:31.735Z,1.00
2023-05-25T14:57:59.739Z,1.00
2023-05-25T15:00:31.232Z,1.00
2023-05-25T15:02:59.458Z,1.00
2023-05-25T15:05:27.562Z,1.00
2023-05-25T15:07:58.923Z,1.00
2023-05-25T15:10:28.782Z,1.00
2023-05-25T15:12:56.811Z,1.00
2023-05-25T15:15:24.620Z,1.00
2023-05-25T15:17:53.843Z,1.00
2023-05-25T15:20:22.249Z,1.00
2023-05-25T15:22:51.440Z,1.00
2023-05-25T15:25:33.958Z,1.00
2023-05-25T15:28:03.880Z,1.00
2023-05-25T15:30:33.164Z,1.00
2023-05-25T15:33:03.411Z,1.00
2023-05-25T15:35:32.675Z,1.00
2023-05-25T15:38:01.566Z,1.00
2023-05-25T15:40:29.706Z,1.00
2023-05-25T15:42:57.830Z,1.00
2023-05-25T15:45:26.400Z,1.00
2023-05-25T15:47:54.661Z,1.00
2023-05-25T15:50:26.269Z,1.00
2023-05-25T15:52:54.047Z,1.00
2023-05-25T15:55:22.093Z,1.00
2023-05-25T15:57:52.332Z,1.00
2023-05-25T16:00:21.073Z,1.00
2023-05-25T16:02:53.229Z,1.00
2023-05-25T16:05:21.127Z,1.00
2023-05-25T16:07:50.216Z,1.00
2023-05-25T16:10:18.376Z,1.00
2023-05-25T16:12:47.334Z,1.00
2023-05-25T16:15:15.468Z,1.00
2023-05-25T16:17:43.252Z,1.00
2023-05-25T16:20:11.456Z,1.00
2023-05-25T16:22:44.188Z,1.00
2023-05-25T16:25:13.832Z,1.00
2023-05-25T16:27:42.173Z,1.00
2023-05-25T16:30:13.162Z,1.00
2023-05-25T16:32:47.533Z,1.00
2023-05-25T16:35:16.479Z,1.00
2023-05-25T16:37:45.058Z,1.00
2023-05-25T16:40:17.647Z,1.00
2023-05-25T16:42:46.101Z,1.00
2023-05-25T16:45:16.979Z,1.00
2023-05-25T16:47:44.799Z,1.00
2023-05-25T16:50:12.768Z,1.00
2023-05-25T16:52:40.928Z,1.00
2023-05-25T16:55:12.938Z,1.00
2023-05-25T16:57:42.427Z,1.00
2023-05-25T17:00:11.734Z,1.00
2023-05-25T17:02:39.875Z,1.00
2023-05-25T17:05:08.550Z,1.00
2023-05-25T17:07:37.651Z,1.00
2023-05-25T17:10:08.314Z,1.00
2023-05-25T17:12:36.399Z,1.00
2023-05-25T17:15:06.659Z,1.00
2023-05-25T17:17:35.086Z,1.00
2023-05-25T17:20:04.282Z,1.00
2023-05-25T17:22:32.435Z,1.00
2023-05-25T17:25:01.579Z,1.00
2023-05-25T17:27:29.495Z,1.00
2023-05-25T17:29:58.119Z,1.00
2023-05-25T17:32:27.449Z,1.00
2023-05-25T17:34:55.594Z,1.00
2023-05-25T17:37:24.466Z,1.00
2023-05-25T17:39:52.562Z,1.00
2023-05-25T17:42:22.456Z,1.00
2023-05-25T17:44:50.208Z,1.00
2023-05-25T17:47:18.217Z,1.00
2023-05-25T17:49:47.387Z,1.00
2023-05-25T17:52:15.112Z,1.00
2023-05-25T17:54:46.025Z,1.00
2023-05-25T17:57:14.147Z,1.00
2023-05-25T17:59:44.156Z,1.00
2023-05-25T18:02:13.759Z,1.00
2023-05-25T18:04:41.632Z,1.00
2023-05-25T18:07:11.707Z,1.00
2023-05-25T18:09:39.587Z,1.00
2023-05-25T18:12:09.947Z,1.00
2023-05-25T18:14:37.887Z,1.00
2023-05-25T18:17:07.696Z,1.00
2023-05-25T18:19:39.633Z,1.00
2023-05-25T18:22:07.938Z,1.00
2023-05-25T18:24:37.254Z,1.00
2023-05-25T18:27:05.829Z,1.00
2023-05-25T18:29:34.624Z,1.00
2023-05-25T18:32:02.488Z,1.00
2023-05-25T18:34:30.533Z,1.00
2023-05-25T18:36:58.560Z,1.00
2023-05-25T18:39:26.475Z,1.00
2023-05-25T18:41:55.520Z,1.00
2023-05-25T18:44:24.592Z,3.60
2023-05-25T18:46:53.511Z,6.60
2023-05-25T18:49:21.380Z,10.80
2023-05-25T18:51:49.482Z,15.60
2023-05-25T18:54:18.601Z,20.60
2023-05-25T18:56:47.409Z,25.00
2023-05-25T18:59:18.236Z,28.50
2023-05-25T19:01:48.443Z,30.50
2023-05-25T19:04:16.594Z,33.50
2023-05-25T19:06:44.602Z,36.30
2023-05-25T19:09:12.418Z,38.90
2023-05-25T19:11:40.948Z,41.20
2023-05-25T19:14:09.176Z,43.00
2023-05-25T19:16:38.639Z,44.50
2023-05-25T19:19:07.682Z,46.10
2023-05-25T19:21:36.894Z,47.70
2023-05-25T19:24:05.281Z,49.20
2023-05-25T19:26:36.728Z,50.10
2023-05-25T19:29:04.552Z,51.30
2023-05-25T19:31:39.163Z,52.70
2023-05-25T19:34:09.375Z,54.10
2023-05-25T19:36:38.766Z,55.10
2023-05-25T19:39:06.810Z,55.90
2023-05-25T19:41:36.567Z,57.00
2023-05-25T19:44:05.011Z,58.10
2023-05-25T19:46:33.523Z,58.70
2023-05-25T19:49:01.744Z,59.50
2023-05-25T19:51:31.107Z,60.20
2023-05-25T19:53:58.830Z,60.60
2023-05-25T19:56:27.682Z,61.40
2023-05-25T19:58:56.431Z,62.00
2023-05-25T20:01:24.787Z,63.00
2023-05-25T20:03:52.987Z,63.10
2023-05-25T20:06:21.301Z,64.00
2023-05-25T20:08:50.392Z,64.60
2023-05-25T20:11:18.173Z,65.50
2023-05-25T20:13:46.774Z,65.80
2023-05-25T20:16:14.924Z,66.10
2023-05-25T20:18:44.592Z,66.50
2023-05-25T20:21:12.459Z,67.40
2023-05-25T20:23:40.245Z,68.40
2023-05-25T20:26:09.453Z,68.60
2023-05-25T20:28:37.228Z,70.30
2023-05-25T20:31:07.215Z,70.60
2023-05-25T20:33:35.825Z,71.90
2023-05-25T20:36:05.754Z,74.00
2023-05-25T20:38:39.579Z,74.60
2023-05-25T20:41:09.136Z,75.70
2023-05-25T20:43:37.123Z,77.20
2023-05-25T20:46:07.240Z,79.20
2023-05-25T20:48:35.614Z,80.80
2023-05-25T20:51:04.440Z,82.20
2023-05-25T20:53:33.045Z,83.60
2023-05-25T20:56:04.955Z,84.10
2023-05-25T20:58:38.494Z,85.10
2023-05-25T21:01:21.496Z,86.50
2023-05-25T21:03:52.202Z,86.70
2023-05-25T21:06:23.549Z,89.10
2023-05-25T21:08:55.241Z,90.30
2023-05-25T21:11:26.212Z,90.80
2023-05-25T21:13:56.695Z,91.20
2023-05-25T21:16:24.905Z,92.30
2023-05-25T21:18:53.320Z,92.50
2023-05-25T21:21:24.334Z,92.90
2023-05-25T21:23:52.416Z,93.30
2023-05-25T21:26:21.293Z,94.10
2023-05-25T21:28:49.338Z,95.20
2023-05-25T21:31:23.064Z,96.00
2023-05-25T21:33:51.455Z,97.00
2023-05-25T21:36:20.031Z,97.60
2023-05-25T21:38:48.279Z,98.50
2023-05-25T21:41:16.476Z,99.40
2023-05-25T21:43:44.813Z,99.90
2023-05-25T21:46:13.169Z,99.90
2023-05-25T21:48:42.818Z,99.90
2023-05-25T21:51:11.956Z,99.90
2023-05-25T21:53:42.564Z,99.90
2023-05-25T21:56:10.680Z,99.90
2023-05-25T21:58:38.964Z,99.90
2023-05-25T22:01:07.242Z,99.90
2023-05-25T22:03:35.377Z,99.90
2023-05-25T22:06:05.358Z,99.90
2023-05-25T22:08:33.097Z,99.90
2023-05-25T22:11:01.309Z,99.90
2023-05-25T22:13:29.460Z,99.90
2023-05-25T22:15:57.789Z,99.90
2023-05-25T22:18:27.077Z,99.90
2023-05-25T22:20:56.262Z,99.90
2023-05-25T22:23:26.231Z,99.90
2023-05-25T22:25:54.256Z,99.90
2023-05-25T22:28:22.484Z,99.90
2023-05-25T22:30:51.518Z,99.90
2023-05-25T22:33:20.308Z,99.90
2023-05-25T22:35:48.456Z,99.90
2023-05-25T22:38:16.670Z,99.90
2023-05-25T22:40:47.630Z,99.90
2023-05-25T22:43:16.142Z,99.90
2023-05-25T22:45:44.347Z,99.90
2023-05-25T22:48:13.211Z,99.90
2023-05-25T22:50:41.430Z,99.90
2023-05-25T22:53:10.283Z,99.90
2023-05-25T22:55:38.818Z,99.90
2023-05-25T22:58:08.643Z,99.90
2023-05-25T23:00:38.335Z,99.90
2023-05-25T23:03:06.618Z,99.90
2023-05-25T23:05:35.248Z,99.90
2023-05-25T23:08:03.767Z,99.90
2023-05-25T23:10:34.459Z,99.90
2023-05-25T23:13:04.280Z,99.90
2023-05-25T23:15:37.710Z,99.90
2023-05-25T23:18:05.753Z,99.90
2023-05-25T23:20:35.909Z,99.90
2023-05-25T23:23:03.994Z,99.90
2023-05-25T23:25:33.151Z,99.90
2023-05-25T23:28:01.262Z,99.90
2023-05-25T23:30:29.825Z,99.90
2023-05-25T23:33:00.401Z,99.90
2023-05-25T23:35:30.970Z,99.90
2023-05-25T23:38:02.285Z,99.90
2023-05-25T23:40:31.170Z,99.90
2023-05-25T23:43:00.302Z,99.90
2023-05-25T23:45:28.444Z,99.90
2023-05-25T23:47:58.588Z,99.90
2023-05-25T23:50:30.894Z,99.90
2023-05-25T23:53:01.659Z,99.90
2023-05-25T23:55:29.832Z,99.90
2023-05-25T23:57:58.039Z,99.90
